sensor_id;sensor_type;location;lat;lon;timestamp;pressure;altitude;pressure_sealevel;temperature;humidity
25420;BME280;13354;48.174;11.566;2024-01-16T00:00:22;94968.63;;;-1.64;69.40
25420;BME280;13354;48.174;11.566;2024-01-16T00:02:47;94967.56;;;-1.61;68.95
25420;BME280;13354;48.174;11.566;2024-01-16T00:05:12;94965.34;;;-1.66;69.20
25420;BME280;13354;48.174;11.566;2024-01-16T00:07:39;94975.88;;;-1.48;69.06
25420;BME280;13354;48.174;11.566;2024-01-16T00:10:07;94973.81;;;-1.74;68.20
25420;BME280;13354;48.174;11.566;2024-01-16T00:12:33;94990.06;;;-1.72;68.52
25420;BME280;13354;48.174;11.566;2024-01-16T00:14:58;94985.00;;;-1.73;68.74
25420;BME280;13354;48.174;11.566;2024-01-16T00:17:23;94993.84;;;-1.85;68.36
25420;BME280;13354;48.174;11.566;2024-01-16T00:19:49;94993.44;;;-1.81;68.61
25420;BME280;13354;48.174;11.566;2024-01-16T00:22:14;94992.53;;;-1.80;68.44
25420;BME280;13354;48.174;11.566;2024-01-16T00:24:40;95001.34;;;-1.92;68.81
25420;BME280;13354;48.174;11.566;2024-01-16T00:27:05;95002.19;;;-1.82;69.29
25420;BME280;13354;48.174;11.566;2024-01-16T00:29:31;94994.66;;;-1.85;68.91
25420;BME280;13354;48.174;11.566;2024-01-16T00:31:56;95000.53;;;-1.92;68.57
25420;BME280;13354;48.174;11.566;2024-01-16T00:34:22;95001.34;;;-2.02;68.81
25420;BME280;13354;48.174;11.566;2024-01-16T00:36:47;94996.00;;;-2.00;68.67
25420;BME280;13354;48.174;11.566;2024-01-16T00:39:13;95006.63;;;-2.03;68.50
25420;BME280;13354;48.174;11.566;2024-01-16T00:41:39;95003.94;;;-2.02;68.34
25420;BME280;13354;48.174;11.566;2024-01-16T00:44:04;95016.50;;;-1.97;67.28
25420;BME280;13354;48.174;11.566;2024-01-16T00:46:30;95015.13;;;-2.01;67.61
25420;BME280;13354;48.174;11.566;2024-01-16T00:48:55;95025.81;;;-1.85;68.11
25420;BME280;13354;48.174;11.566;2024-01-16T00:51:21;95022.66;;;-1.98;68.75
25420;BME280;13354;48.174;11.566;2024-01-16T00:53:46;95029.03;;;-2.02;67.64
25420;BME280;13354;48.174;11.566;2024-01-16T00:56:12;95023.16;;;-2.04;67.74
25420;BME280;13354;48.174;11.566;2024-01-16T00:58:40;95033.56;;;-1.95;68.06
25420;BME280;13354;48.174;11.566;2024-01-16T01:01:06;95031.66;;;-2.02;67.90
25420;BME280;13354;48.174;11.566;2024-01-16T01:03:31;95036.31;;;-1.86;67.93
25420;BME280;13354;48.174;11.566;2024-01-16T01:05:57;95039.69;;;-2.05;67.91
25420;BME280;13354;48.174;11.566;2024-01-16T01:08:23;95042.69;;;-2.00;67.99
25420;BME280;13354;48.174;11.566;2024-01-16T01:10:48;95051.78;;;-2.15;67.66
25420;BME280;13354;48.174;11.566;2024-01-16T01:13:13;95044.81;;;-2.15;67.79
25420;BME280;13354;48.174;11.566;2024-01-16T01:15:39;95052.28;;;-2.22;67.60
25420;BME280;13354;48.174;11.566;2024-01-16T01:18:04;95051.53;;;-2.12;67.33
25420;BME280;13354;48.174;11.566;2024-01-16T01:20:31;95058.03;;;-2.18;67.25
25420;BME280;13354;48.174;11.566;2024-01-16T01:22:56;95051.03;;;-1.97;67.74
25420;BME280;13354;48.174;11.566;2024-01-16T01:25:21;95047.72;;;-2.08;66.99
25420;BME280;13354;48.174;11.566;2024-01-16T01:27:47;95063.09;;;-2.16;67.44
25420;BME280;13354;48.174;11.566;2024-01-16T01:30:12;95067.66;;;-2.09;67.13
25420;BME280;13354;48.174;11.566;2024-01-16T01:32:38;95066.59;;;-2.27;67.09
25420;BME280;13354;48.174;11.566;2024-01-16T01:35:05;95073.16;;;-2.23;67.93
25420;BME280;13354;48.174;11.566;2024-01-16T01:37:30;95074.78;;;-2.01;67.82
25420;BME280;13354;48.174;11.566;2024-01-16T01:39:55;95084.34;;;-2.23;68.04
25420;BME280;13354;48.174;11.566;2024-01-16T01:42:21;95088.16;;;-2.27;67.83
25420;BME280;13354;48.174;11.566;2024-01-16T01:44:47;95086.06;;;-2.12;67.63
25420;BME280;13354;48.174;11.566;2024-01-16T01:47:12;95080.06;;;-2.03;67.20
25420;BME280;13354;48.174;11.566;2024-01-16T01:49:38;95083.97;;;-2.18;67.61
25420;BME280;13354;48.174;11.566;2024-01-16T01:52:04;95089.16;;;-2.18;67.69
25420;BME280;13354;48.174;11.566;2024-01-16T01:54:31;95091.19;;;-2.22;67.99
25420;BME280;13354;48.174;11.566;2024-01-16T01:56:57;95093.91;;;-2.23;68.06
25420;BME280;13354;48.174;11.566;2024-01-16T01:59:23;95099.66;;;-2.20;68.19
25420;BME280;13354;48.174;11.566;2024-01-16T02:01:51;95098.19;;;-2.12;68.23
25420;BME280;13354;48.174;11.566;2024-01-16T02:04:19;95091.31;;;-1.92;67.72
25420;BME280;13354;48.174;11.566;2024-01-16T02:06:44;95095.13;;;-1.97;67.09
25420;BME280;13354;48.174;11.566;2024-01-16T02:09:10;95102.34;;;-2.00;67.54
25420;BME280;13354;48.174;11.566;2024-01-16T02:11:41;95099.34;;;-2.05;67.32
25420;BME280;13354;48.174;11.566;2024-01-16T02:14:07;95110.69;;;-1.97;67.32
25420;BME280;13354;48.174;11.566;2024-01-16T02:16:40;95100.41;;;-2.08;67.63
25420;BME280;13354;48.174;11.566;2024-01-16T02:19:06;95101.31;;;-1.88;67.97
25420;BME280;13354;48.174;11.566;2024-01-16T02:21:53;95109.31;;;-2.01;67.82
25420;BME280;13354;48.174;11.566;2024-01-16T02:24:20;95103.41;;;-2.03;67.58
25420;BME280;13354;48.174;11.566;2024-01-16T02:26:45;95096.56;;;-2.13;67.49
25420;BME280;13354;48.174;11.566;2024-01-16T02:29:11;95095.94;;;-1.96;67.45
25420;BME280;13354;48.174;11.566;2024-01-16T02:31:36;95115.06;;;-1.97;67.43
25420;BME280;13354;48.174;11.566;2024-01-16T02:34:02;95113.13;;;-2.05;67.28
25420;BME280;13354;48.174;11.566;2024-01-16T02:36:29;95113.63;;;-2.11;67.40
25420;BME280;13354;48.174;11.566;2024-01-16T02:38:55;95119.19;;;-1.95;67.17
25420;BME280;13354;48.174;11.566;2024-01-16T02:41:21;95114.75;;;-2.04;66.77
25420;BME280;13354;48.174;11.566;2024-01-16T02:43:46;95117.00;;;-2.20;67.32
25420;BME280;13354;48.174;11.566;2024-01-16T02:46:12;95119.28;;;-2.27;67.28
25420;BME280;13354;48.174;11.566;2024-01-16T02:48:38;95125.19;;;-2.15;67.83
25420;BME280;13354;48.174;11.566;2024-01-16T02:51:04;95126.16;;;-2.16;67.50
25420;BME280;13354;48.174;11.566;2024-01-16T02:53:30;95114.44;;;-2.10;67.23
25420;BME280;13354;48.174;11.566;2024-01-16T02:55:56;95117.94;;;-2.21;67.55
25420;BME280;13354;48.174;11.566;2024-01-16T02:58:26;95113.69;;;-2.22;67.14
25420;BME280;13354;48.174;11.566;2024-01-16T03:00:52;95118.69;;;-2.30;67.68
25420;BME280;13354;48.174;11.566;2024-01-16T03:03:19;95115.69;;;-2.35;68.27
25420;BME280;13354;48.174;11.566;2024-01-16T03:05:45;95123.75;;;-2.29;67.99
25420;BME280;13354;48.174;11.566;2024-01-16T03:08:11;95120.88;;;-2.35;68.15
25420;BME280;13354;48.174;11.566;2024-01-16T03:10:36;95120.66;;;-2.44;68.25
25420;BME280;13354;48.174;11.566;2024-01-16T03:13:01;95128.75;;;-2.37;68.34
25420;BME280;13354;48.174;11.566;2024-01-16T03:15:27;95124.88;;;-2.22;68.39
25420;BME280;13354;48.174;11.566;2024-01-16T03:17:53;95126.97;;;-2.15;67.86
25420;BME280;13354;48.174;11.566;2024-01-16T03:20:18;95121.22;;;-2.19;67.63
25420;BME280;13354;48.174;11.566;2024-01-16T03:22:44;95126.28;;;-2.38;67.91
25420;BME280;13354;48.174;11.566;2024-01-16T03:25:10;95127.38;;;-2.41;68.22
25420;BME280;13354;48.174;11.566;2024-01-16T03:27:37;95133.81;;;-2.35;68.41
25420;BME280;13354;48.174;11.566;2024-01-16T03:30:03;95131.16;;;-2.45;68.01
25420;BME280;13354;48.174;11.566;2024-01-16T03:32:29;95130.44;;;-2.47;68.07
25420;BME280;13354;48.174;11.566;2024-01-16T03:34:54;95138.13;;;-2.46;68.78
25420;BME280;13354;48.174;11.566;2024-01-16T03:37:20;95146.09;;;-2.37;68.60
25420;BME280;13354;48.174;11.566;2024-01-16T03:39:45;95141.97;;;-2.40;68.15
25420;BME280;13354;48.174;11.566;2024-01-16T03:42:11;95141.53;;;-2.45;68.58
25420;BME280;13354;48.174;11.566;2024-01-16T03:44:39;95144.03;;;-2.55;68.59
25420;BME280;13354;48.174;11.566;2024-01-16T03:47:04;95147.47;;;-2.33;68.35
25420;BME280;13354;48.174;11.566;2024-01-16T03:49:29;95147.38;;;-2.43;68.98
25420;BME280;13354;48.174;11.566;2024-01-16T03:51:55;95137.78;;;-2.52;68.81
25420;BME280;13354;48.174;11.566;2024-01-16T03:54:20;95139.19;;;-2.48;69.06
25420;BME280;13354;48.174;11.566;2024-01-16T03:56:45;95136.97;;;-2.53;68.84
25420;BME280;13354;48.174;11.566;2024-01-16T03:59:12;95138.13;;;-2.46;68.58
25420;BME280;13354;48.174;11.566;2024-01-16T04:01:37;95130.66;;;-2.60;69.43
25420;BME280;13354;48.174;11.566;2024-01-16T04:04:02;95129.44;;;-2.56;69.39
25420;BME280;13354;48.174;11.566;2024-01-16T04:06:28;95135.69;;;-2.58;69.13
25420;BME280;13354;48.174;11.566;2024-01-16T04:08:54;95134.44;;;-2.43;68.90
25420;BME280;13354;48.174;11.566;2024-01-16T04:11:20;95135.53;;;-2.46;68.40
25420;BME280;13354;48.174;11.566;2024-01-16T04:13:45;95132.84;;;-2.55;68.78
25420;BME280;13354;48.174;11.566;2024-01-16T04:16:12;95130.72;;;-2.50;68.66
25420;BME280;13354;48.174;11.566;2024-01-16T04:18:39;95130.78;;;-2.40;69.10
25420;BME280;13354;48.174;11.566;2024-01-16T04:21:05;95129.97;;;-2.20;68.34
25420;BME280;13354;48.174;11.566;2024-01-16T04:23:31;95132.56;;;-2.20;68.44
25420;BME280;13354;48.174;11.566;2024-01-16T04:25:56;95136.28;;;-2.34;68.45
25420;BME280;13354;48.174;11.566;2024-01-16T04:28:22;95138.56;;;-2.40;68.68
25420;BME280;13354;48.174;11.566;2024-01-16T04:30:47;95129.06;;;-2.30;68.52
25420;BME280;13354;48.174;11.566;2024-01-16T04:33:12;95130.53;;;-2.37;68.90
25420;BME280;13354;48.174;11.566;2024-01-16T04:35:38;95132.22;;;-2.27;68.61
25420;BME280;13354;48.174;11.566;2024-01-16T04:38:03;95126.97;;;-2.36;68.31
25420;BME280;13354;48.174;11.566;2024-01-16T04:40:29;95122.31;;;-2.42;68.49
25420;BME280;13354;48.174;11.566;2024-01-16T04:42:54;95128.31;;;-2.42;68.42
25420;BME280;13354;48.174;11.566;2024-01-16T04:45:20;95131.28;;;-2.47;68.49
25420;BME280;13354;48.174;11.566;2024-01-16T04:47:45;95123.31;;;-2.34;68.98
25420;BME280;13354;48.174;11.566;2024-01-16T04:50:10;95120.78;;;-2.45;68.71
25420;BME280;13354;48.174;11.566;2024-01-16T04:52:36;95119.66;;;-2.52;68.78
25420;BME280;13354;48.174;11.566;2024-01-16T04:55:01;95120.34;;;-2.50;68.81
25420;BME280;13354;48.174;11.566;2024-01-16T04:57:26;95120.59;;;-2.53;69.38
25420;BME280;13354;48.174;11.566;2024-01-16T04:59:52;95125.34;;;-2.37;68.89
25420;BME280;13354;48.174;11.566;2024-01-16T05:02:17;95114.25;;;-2.39;68.39
25420;BME280;13354;48.174;11.566;2024-01-16T05:04:43;95112.63;;;-2.40;68.53
25420;BME280;13354;48.174;11.566;2024-01-16T05:07:08;95113.06;;;-2.56;68.50
25420;BME280;13354;48.174;11.566;2024-01-16T05:09:34;95111.63;;;-2.49;68.75
25420;BME280;13354;48.174;11.566;2024-01-16T05:12:00;95118.56;;;-2.71;69.25
25420;BME280;13354;48.174;11.566;2024-01-16T05:14:25;95125.91;;;-2.76;69.26
25420;BME280;13354;48.174;11.566;2024-01-16T05:16:51;95124.69;;;-2.72;69.68
25420;BME280;13354;48.174;11.566;2024-01-16T05:19:17;95117.22;;;-2.86;70.03
25420;BME280;13354;48.174;11.566;2024-01-16T05:21:43;95118.41;;;-2.90;70.05
25420;BME280;13354;48.174;11.566;2024-01-16T05:24:08;95125.22;;;-2.89;70.22
25420;BME280;13354;48.174;11.566;2024-01-16T05:26:33;95115.94;;;-2.92;70.48
25420;BME280;13354;48.174;11.566;2024-01-16T05:28:59;95118.50;;;-2.92;70.44
25420;BME280;13354;48.174;11.566;2024-01-16T05:31:24;95118.59;;;-2.82;70.44
25420;BME280;13354;48.174;11.566;2024-01-16T05:33:49;95121.69;;;-2.88;70.65
25420;BME280;13354;48.174;11.566;2024-01-16T05:36:15;95120.63;;;-2.85;70.53
25420;BME280;13354;48.174;11.566;2024-01-16T05:38:40;95118.06;;;-2.97;70.55
25420;BME280;13354;48.174;11.566;2024-01-16T05:41:06;95117.59;;;-2.90;70.43
25420;BME280;13354;48.174;11.566;2024-01-16T05:43:31;95122.41;;;-2.86;70.33
25420;BME280;13354;48.174;11.566;2024-01-16T05:45:56;95114.25;;;-2.81;70.03
25420;BME280;13354;48.174;11.566;2024-01-16T05:48:22;95124.13;;;-2.75;69.75
25420;BME280;13354;48.174;11.566;2024-01-16T05:50:47;95121.47;;;-2.64;69.56
25420;BME280;13354;48.174;11.566;2024-01-16T05:53:13;95122.78;;;-2.70;69.19
25420;BME280;13354;48.174;11.566;2024-01-16T05:55:38;95121.53;;;-2.75;69.52
25420;BME280;13354;48.174;11.566;2024-01-16T05:58:04;95111.97;;;-2.75;70.06
25420;BME280;13354;48.174;11.566;2024-01-16T06:00:29;95118.94;;;-2.75;69.36
25420;BME280;13354;48.174;11.566;2024-01-16T06:02:55;95117.03;;;-2.73;70.00
25420;BME280;13354;48.174;11.566;2024-01-16T06:05:20;95113.25;;;-2.69;69.70
25420;BME280;13354;48.174;11.566;2024-01-16T06:07:46;95115.84;;;-2.69;69.86
25420;BME280;13354;48.174;11.566;2024-01-16T06:10:14;95111.94;;;-2.63;69.22
25420;BME280;13354;48.174;11.566;2024-01-16T06:12:40;95108.78;;;-2.67;69.51
25420;BME280;13354;48.174;11.566;2024-01-16T06:15:05;95109.47;;;-2.65;69.02
25420;BME280;13354;48.174;11.566;2024-01-16T06:17:31;95108.56;;;-2.54;69.07
25420;BME280;13354;48.174;11.566;2024-01-16T06:19:57;95109.47;;;-2.65;68.66
25420;BME280;13354;48.174;11.566;2024-01-16T06:22:22;95102.97;;;-2.59;68.82
25420;BME280;13354;48.174;11.566;2024-01-16T06:24:47;95112.25;;;-2.57;68.84
25420;BME280;13354;48.174;11.566;2024-01-16T06:27:13;95105.88;;;-2.53;68.34
25420;BME280;13354;48.174;11.566;2024-01-16T06:29:47;95110.56;;;-2.47;68.43
25420;BME280;13354;48.174;11.566;2024-01-16T06:32:13;95112.75;;;-2.42;68.01
25420;BME280;13354;48.174;11.566;2024-01-16T06:34:39;95120.34;;;-2.50;68.21
25420;BME280;13354;48.174;11.566;2024-01-16T06:37:04;95120.78;;;-2.45;68.46
25420;BME280;13354;48.174;11.566;2024-01-16T06:39:29;95121.59;;;-2.45;68.25
25420;BME280;13354;48.174;11.566;2024-01-16T06:41:55;95120.22;;;-2.49;68.26
25420;BME280;13354;48.174;11.566;2024-01-16T06:44:20;95121.22;;;-2.40;67.59
25420;BME280;13354;48.174;11.566;2024-01-16T06:46:45;95112.38;;;-2.37;67.97
25420;BME280;13354;48.174;11.566;2024-01-16T06:49:11;95107.25;;;-2.49;68.17
25420;BME280;13354;48.174;11.566;2024-01-16T06:51:37;95114.78;;;-2.46;67.78
25420;BME280;13354;48.174;11.566;2024-01-16T06:54:02;95119.44;;;-2.39;67.69
25420;BME280;13354;48.174;11.566;2024-01-16T06:56:29;95121.03;;;-2.27;67.79
25420;BME280;13354;48.174;11.566;2024-01-16T06:58:54;95115.59;;;-2.45;67.76
25420;BME280;13354;48.174;11.566;2024-01-16T07:01:19;95129.72;;;-2.38;67.83
25420;BME280;13354;48.174;11.566;2024-01-16T07:03:45;95119.94;;;-2.25;67.72
25420;BME280;13354;48.174;11.566;2024-01-16T07:06:10;95118.94;;;-2.33;67.89
25420;BME280;13354;48.174;11.566;2024-01-16T07:08:35;95125.28;;;-2.26;68.38
25420;BME280;13354;48.174;11.566;2024-01-16T07:11:01;95120.91;;;-2.26;68.18
25420;BME280;13354;48.174;11.566;2024-01-16T07:13:26;95117.31;;;-2.13;67.70
25420;BME280;13354;48.174;11.566;2024-01-16T07:15:52;95112.41;;;-2.07;68.07
25420;BME280;13354;48.174;11.566;2024-01-16T07:18:17;95108.44;;;-2.11;67.69
25420;BME280;13354;48.174;11.566;2024-01-16T07:20:43;95102.44;;;-2.11;67.58
25420;BME280;13354;48.174;11.566;2024-01-16T07:23:10;95105.97;;;-2.12;67.08
25420;BME280;13354;48.174;11.566;2024-01-16T07:25:36;95104.94;;;-2.00;67.60
25420;BME280;13354;48.174;11.566;2024-01-16T07:28:01;95112.56;;;-2.08;67.98
25420;BME280;13354;48.174;11.566;2024-01-16T07:30:26;95119.84;;;-2.02;67.16
25420;BME280;13354;48.174;11.566;2024-01-16T07:32:52;95122.28;;;-2.01;68.00
25420;BME280;13354;48.174;11.566;2024-01-16T07:35:18;95125.69;;;-2.00;67.53
25420;BME280;13354;48.174;11.566;2024-01-16T07:37:43;95127.78;;;-1.94;67.00
25420;BME280;13354;48.174;11.566;2024-01-16T07:40:09;95132.44;;;-1.88;66.63
25420;BME280;13354;48.174;11.566;2024-01-16T07:42:35;95132.97;;;-1.94;66.28
25420;BME280;13354;48.174;11.566;2024-01-16T07:45:01;95126.31;;;-1.87;65.96
25420;BME280;13354;48.174;11.566;2024-01-16T07:47:33;95122.38;;;-1.81;65.70
25420;BME280;13354;48.174;11.566;2024-01-16T07:49:59;95126.44;;;-1.88;66.32
25420;BME280;13354;48.174;11.566;2024-01-16T07:52:25;95118.56;;;-1.77;66.33
25420;BME280;13354;48.174;11.566;2024-01-16T07:54:50;95119.56;;;-1.68;66.31
25420;BME280;13354;48.174;11.566;2024-01-16T07:57:16;95118.03;;;-1.71;66.35
25420;BME280;13354;48.174;11.566;2024-01-16T07:59:41;95124.06;;;-1.71;66.64
25420;BME280;13354;48.174;11.566;2024-01-16T08:02:06;95124.88;;;-1.70;65.89
25420;BME280;13354;48.174;11.566;2024-01-16T08:04:32;95119.69;;;-1.70;65.30
25420;BME280;13354;48.174;11.566;2024-01-16T08:06:57;95110.41;;;-1.63;65.99
25420;BME280;13354;48.174;11.566;2024-01-16T08:09:23;95117.09;;;-1.70;66.06
25420;BME280;13354;48.174;11.566;2024-01-16T08:11:48;95117.47;;;-1.75;66.28
25420;BME280;13354;48.174;11.566;2024-01-16T08:14:14;95126.78;;;-1.72;66.11
25420;BME280;13354;48.174;11.566;2024-01-16T08:16:39;95131.84;;;-1.71;65.93
25420;BME280;13354;48.174;11.566;2024-01-16T08:19:04;95134.31;;;-1.69;66.11
25420;BME280;13354;48.174;11.566;2024-01-16T08:21:30;95125.00;;;-1.72;66.19
25420;BME280;13354;48.174;11.566;2024-01-16T08:23:55;95125.81;;;-1.71;66.30
25420;BME280;13354;48.174;11.566;2024-01-16T08:26:21;95131.44;;;-1.66;66.13
25420;BME280;13354;48.174;11.566;2024-01-16T08:28:46;95132.78;;;-1.72;66.16
25420;BME280;13354;48.174;11.566;2024-01-16T08:31:11;95129.69;;;-1.65;66.25
25420;BME280;13354;48.174;11.566;2024-01-16T08:33:37;95130.53;;;-1.55;66.46
25420;BME280;13354;48.174;11.566;2024-01-16T08:36:03;95126.22;;;-1.35;65.95
25420;BME280;13354;48.174;11.566;2024-01-16T08:38:29;95118.31;;;-1.34;66.28
25420;BME280;13354;48.174;11.566;2024-01-16T08:40:55;95127.47;;;-1.30;65.59
25420;BME280;13354;48.174;11.566;2024-01-16T08:43:20;95119.72;;;-1.10;65.40
25420;BME280;13354;48.174;11.566;2024-01-16T08:45:45;95113.97;;;-1.14;65.33
25420;BME280;13354;48.174;11.566;2024-01-16T08:48:13;95114.09;;;-1.15;65.02
25420;BME280;13354;48.174;11.566;2024-01-16T08:50:40;95113.69;;;-1.11;64.95
25420;BME280;13354;48.174;11.566;2024-01-16T08:53:05;95108.94;;;-1.06;64.81
25420;BME280;13354;48.174;11.566;2024-01-16T08:55:32;95105.50;;;-1.16;65.13
25420;BME280;13354;48.174;11.566;2024-01-16T08:57:57;95102.38;;;-1.10;65.23
25420;BME280;13354;48.174;11.566;2024-01-16T09:00:22;95101.69;;;-1.02;65.42
25420;BME280;13354;48.174;11.566;2024-01-16T09:02:48;95093.59;;;-1.09;64.79
25420;BME280;13354;48.174;11.566;2024-01-16T09:05:14;95093.75;;;-1.01;64.70
25420;BME280;13354;48.174;11.566;2024-01-16T09:07:40;95091.97;;;-0.90;64.38
25420;BME280;13354;48.174;11.566;2024-01-16T09:10:06;95088.97;;;-0.86;64.01
25420;BME280;13354;48.174;11.566;2024-01-16T09:12:32;95096.09;;;-0.78;63.99
25420;BME280;13354;48.174;11.566;2024-01-16T09:14:58;95094.72;;;-0.63;63.81
25420;BME280;13354;48.174;11.566;2024-01-16T09:17:24;95082.41;;;-0.51;63.68
25420;BME280;13354;48.174;11.566;2024-01-16T09:19:50;95077.59;;;-0.46;64.00
25420;BME280;13354;48.174;11.566;2024-01-16T09:22:16;95084.56;;;-0.37;63.48
25420;BME280;13354;48.174;11.566;2024-01-16T09:24:41;95085.63;;;-0.20;62.02
25420;BME280;13354;48.174;11.566;2024-01-16T09:27:07;95077.19;;;0.06;61.40
25420;BME280;13354;48.174;11.566;2024-01-16T09:29:35;95077.41;;;0.22;61.63
25420;BME280;13354;48.174;11.566;2024-01-16T09:32:00;95078.63;;;0.55;60.77
25420;BME280;13354;48.174;11.566;2024-01-16T09:34:25;95081.72;;;0.41;60.05
25420;BME280;13354;48.174;11.566;2024-01-16T09:36:51;95074.91;;;0.30;59.89
25420;BME280;13354;48.174;11.566;2024-01-16T09:39:16;95077.47;;;0.40;59.71
25420;BME280;13354;48.174;11.566;2024-01-16T09:41:41;95079.97;;;0.32;59.49
25420;BME280;13354;48.174;11.566;2024-01-16T09:44:08;95083.13;;;-0.02;59.81
25420;BME280;13354;48.174;11.566;2024-01-16T09:46:34;95077.88;;;0.08;59.67
25420;BME280;13354;48.174;11.566;2024-01-16T09:49:02;95079.13;;;0.04;60.01
25420;BME280;13354;48.174;11.566;2024-01-16T09:51:28;95079.91;;;0.14;60.25
25420;BME280;13354;48.174;11.566;2024-01-16T09:53:53;95076.41;;;0.33;60.42
25420;BME280;13354;48.174;11.566;2024-01-16T09:56:21;95083.81;;;0.37;60.22
25420;BME280;13354;48.174;11.566;2024-01-16T09:58:49;95073.91;;;0.41;59.44
25420;BME280;13354;48.174;11.566;2024-01-16T10:01:15;95079.19;;;0.21;58.62
25420;BME280;13354;48.174;11.566;2024-01-16T10:03:44;95087.06;;;0.12;58.50
25420;BME280;13354;48.174;11.566;2024-01-16T10:06:10;95079.53;;;0.09;58.99
25420;BME280;13354;48.174;11.566;2024-01-16T10:08:36;95078.56;;;0.10;59.13
25420;BME280;13354;48.174;11.566;2024-01-16T10:11:02;95071.44;;;0.12;59.14
25420;BME280;13354;48.174;11.566;2024-01-16T10:13:28;95071.72;;;0.09;58.85
25420;BME280;13354;48.174;11.566;2024-01-16T10:15:54;95074.75;;;0.04;59.36
25420;BME280;13354;48.174;11.566;2024-01-16T10:18:28;95076.75;;;0.10;59.12
25420;BME280;13354;48.174;11.566;2024-01-16T10:20:56;95066.31;;;0.30;58.99
25420;BME280;13354;48.174;11.566;2024-01-16T10:23:25;95071.53;;;0.20;58.65
25420;BME280;13354;48.174;11.566;2024-01-16T10:28:34;95059.34;;;0.20;58.83
25420;BME280;13354;48.174;11.566;2024-01-16T10:31:09;95055.63;;;0.23;59.39
25420;BME280;13354;48.174;11.566;2024-01-16T10:33:36;95055.63;;;0.23;59.51
25420;BME280;13354;48.174;11.566;2024-01-16T10:36:14;95050.53;;;0.31;60.03
25420;BME280;13354;48.174;11.566;2024-01-16T10:38:43;95041.69;;;0.42;58.95
25420;BME280;13354;48.174;11.566;2024-01-16T10:41:13;95035.81;;;0.40;58.62
25420;BME280;13354;48.174;11.566;2024-01-16T10:43:40;95031.53;;;0.48;58.50
25420;BME280;13354;48.174;11.566;2024-01-16T10:46:15;95034.28;;;0.65;57.90
25420;BME280;13354;48.174;11.566;2024-01-16T10:48:45;95023.91;;;0.55;57.42
25420;BME280;13354;48.174;11.566;2024-01-16T10:51:23;95034.78;;;0.51;57.49
25420;BME280;13354;48.174;11.566;2024-01-16T10:53:49;95033.41;;;0.56;57.61
25420;BME280;13354;48.174;11.566;2024-01-16T10:56:17;95033.78;;;0.79;57.21
25420;BME280;13354;48.174;11.566;2024-01-16T10:58:44;95036.69;;;0.94;57.08
25420;BME280;13354;48.174;11.566;2024-01-16T11:01:13;95029.56;;;0.78;56.16
25420;BME280;13354;48.174;11.566;2024-01-16T11:03:49;95036.56;;;0.78;56.03
25420;BME280;13354;48.174;11.566;2024-01-16T11:06:17;95038.03;;;1.16;56.46
25420;BME280;13354;48.174;11.566;2024-01-16T11:08:45;95037.66;;;1.29;56.01
25420;BME280;13354;48.174;11.566;2024-01-16T11:11:13;95036.75;;;1.38;55.48
25420;BME280;13354;48.174;11.566;2024-01-16T11:13:39;95034.78;;;1.58;54.56
25420;BME280;13354;48.174;11.566;2024-01-16T11:16:05;95027.66;;;1.42;54.59
25420;BME280;13354;48.174;11.566;2024-01-16T11:18:34;95028.44;;;1.60;54.01
25420;BME280;13354;48.174;11.566;2024-01-16T11:21:05;95028.22;;;1.54;54.14
25420;BME280;13354;48.174;11.566;2024-01-16T11:23:32;95025.25;;;1.49;53.10
25420;BME280;13354;48.174;11.566;2024-01-16T11:25:57;95019.06;;;1.50;52.87
25420;BME280;13354;48.174;11.566;2024-01-16T11:28:27;95008.75;;;1.66;52.00
25420;BME280;13354;48.174;11.566;2024-01-16T11:30:54;95007.00;;;1.75;52.57
25420;BME280;13354;48.174;11.566;2024-01-16T11:35:58;94997.41;;;1.83;52.52
25420;BME280;13354;48.174;11.566;2024-01-16T11:38:24;94997.31;;;1.93;52.89
25420;BME280;13354;48.174;11.566;2024-01-16T11:40:52;95005.22;;;1.75;53.27
25420;BME280;13354;48.174;11.566;2024-01-16T11:46:08;94988.53;;;1.68;53.67
25420;BME280;13354;48.174;11.566;2024-01-16T11:48:34;94986.91;;;1.67;53.11
25420;BME280;13354;48.174;11.566;2024-01-16T11:50:59;94985.16;;;1.50;53.61
25420;BME280;13354;48.174;11.566;2024-01-16T11:53:38;94994.25;;;1.72;53.26
25420;BME280;13354;48.174;11.566;2024-01-16T11:59:18;94992.91;;;1.59;53.15
25420;BME280;13354;48.174;11.566;2024-01-16T12:01:52;94985.22;;;1.58;53.64
25420;BME280;13354;48.174;11.566;2024-01-16T12:04:18;94983.91;;;1.62;52.83
25420;BME280;13354;48.174;11.566;2024-01-16T12:06:56;94979.94;;;1.50;53.98
25420;BME280;13354;48.174;11.566;2024-01-16T12:09:25;94966.63;;;1.61;53.97
25420;BME280;13354;48.174;11.566;2024-01-16T12:12:02;94965.16;;;1.58;54.02
25420;BME280;13354;48.174;11.566;2024-01-16T12:14:28;94948.06;;;1.64;53.40
25420;BME280;13354;48.174;11.566;2024-01-16T12:17:13;94947.47;;;1.70;53.14
25420;BME280;13354;48.174;11.566;2024-01-16T12:19:39;94933.84;;;1.84;53.65
25420;BME280;13354;48.174;11.566;2024-01-16T12:22:10;94933.06;;;1.92;53.58
25420;BME280;13354;48.174;11.566;2024-01-16T12:24:38;94926.56;;;2.04;52.59
25420;BME280;13354;48.174;11.566;2024-01-16T12:27:04;94932.25;;;1.91;51.90
25420;BME280;13354;48.174;11.566;2024-01-16T12:29:30;94921.16;;;1.98;52.47
25420;BME280;13354;48.174;11.566;2024-01-16T12:32:09;94918.22;;;2.01;52.86
25420;BME280;13354;48.174;11.566;2024-01-16T12:34:48;94914.66;;;2.10;52.06
25420;BME280;13354;48.174;11.566;2024-01-16T12:37:14;94912.81;;;1.94;51.80
25420;BME280;13354;48.174;11.566;2024-01-16T12:39:40;94910.56;;;1.99;52.54
25420;BME280;13354;48.174;11.566;2024-01-16T12:42:08;94905.84;;;2.03;52.40
25420;BME280;13354;48.174;11.566;2024-01-16T12:44:35;94905.84;;;2.03;51.95
25420;BME280;13354;48.174;11.566;2024-01-16T12:47:01;94898.94;;;1.93;52.20
25420;BME280;13354;48.174;11.566;2024-01-16T12:49:27;94900.75;;;2.01;51.73
25420;BME280;13354;48.174;11.566;2024-01-16T12:52:19;94893.09;;;1.91;52.27
25420;BME280;13354;48.174;11.566;2024-01-16T12:54:46;94896.66;;;1.99;52.64
25420;BME280;13354;48.174;11.566;2024-01-16T12:57:19;94893.63;;;2.11;52.81
25420;BME280;13354;48.174;11.566;2024-01-16T12:59:45;94899.63;;;2.04;52.28